Flight Track Log - Related Links

Times and Time Zones

All times are in EDT time to prevent confusion due to time zone crossing. See the SWA1035 flight status page for this flight to view local times or setup timezone preferences in your user account.

Time Position Orientation Groundspeed Altitude Reporting Facility
EDT Latitude Longitude Course Direction KTS MPH feet Rate Location/Type
Thu 11:15:57 AM 27.9667 -82.5500 180° South 153 176 700  Level Tampa TRACON
Thu 11:16:33 AM 27.9333 -82.5500 180° South 176 203 1,700 2,345 Climbing Tampa TRACON
Thu 11:18:51 AM 27.8575 -82.6414 227° Southwest 192 221 7,500 2,727 Climbing Jacksonville Center
Thu 11:19:51 AM 27.9328 -82.6647 345° North 151 174 10,700 2,550 Climbing Jacksonville Center
Thu 11:20:51 AM 28.0267 -82.6881 348° North 255 293 12,600 2,350 Climbing Jacksonville Center
Thu 11:21:51 AM 28.1289 -82.7136 348° North 298 343 15,400 2,600 Climbing Jacksonville Center
Thu 11:22:51 AM 28.2311 -82.7394 347° North 352 405 17,800 2,350 Climbing Jacksonville Center
Thu 11:23:51 AM 28.3397 -82.7675 347° North 376 433 20,100 2,250 Climbing Jacksonville Center
Thu 11:24:51 AM 28.4567 -82.7958 348° North 401 461 22,300 2,200 Climbing Jacksonville Center
Thu 11:25:51 AM 28.5736 -82.8192 350° North 416 479 24,500 2,000 Climbing Jacksonville Center
Thu 11:26:51 AM 28.6758 -82.8831 331° Northwest 421 484 26,300 1,700 Climbing Jacksonville Center
Thu 11:27:51 AM 28.7781 -82.9542 329° Northwest 421 484 27,900 1,950 Climbing Jacksonville Center
Thu 11:28:51 AM 28.8825 -83.0231 330° Northwest 431 496 30,200 2,050 Climbing Jacksonville Center
Thu 11:29:51 AM 28.9844 -83.0967 328° Northwest 431 496 32,000 1,900 Climbing Jacksonville Center
Thu 11:30:51 AM 29.0847 -83.1658 329° Northwest 431 496 34,000 2,350 Climbing Jacksonville Center
Thu 11:31:51 AM 29.1764 -83.2303 328° Northwest 417 480 36,700 1,850 Climbing Jacksonville Center
Thu 11:32:51 AM 29.2639 -83.2925 328° Northwest 394 453 37,700 650 Climbing Jacksonville Center
Thu 11:33:51 AM 29.3533 -83.3547 329° Northwest 380 437 38,000 150 Climbing Jacksonville Center
Thu 11:34:51 AM 29.4428 -83.4172 329° Northwest 380 437 38,000  Level Jacksonville Center
Thu 11:35:51 AM 29.5386 -83.4869 328° Northwest 375 432 38,000  Level Jacksonville Center
Thu 11:36:51 AM 29.6281 -83.5472 330° Northwest 375 432 38,000  Level Jacksonville Center
Thu 11:37:51 AM 29.7175 -83.6100 329° Northwest 375 432 38,000  Level Jacksonville Center
Thu 11:38:51 AM 29.8047 -83.6728 328° Northwest 375 432 38,000  Level Jacksonville Center
Thu 11:39:51 AM 29.8942 -83.7358 329° Northwest 375 432 38,000  Level Jacksonville Center
Thu 11:40:51 AM 29.9814 -83.7989 328° Northwest 370 426 38,000  Level Jacksonville Center
Thu 11:41:51 AM 30.0728 -83.8622 329° Northwest 370 426 38,000  Level Jacksonville Center
Thu 11:42:51 AM 30.1581 -83.9256 327° Northwest 370 426 38,000  Level Jacksonville Center
Thu 11:43:51 AM 30.2472 -83.9867 329° Northwest 370 426 38,000  Level Jacksonville Center
Thu 11:44:51 AM 30.3344 -84.0503 328° Northwest 370 426 38,000  Level Jacksonville Center
Thu 11:45:51 AM 30.4086 -84.1306 317° Northwest 363 418 38,000  Level Jacksonville Center
Thu 11:46:51 AM 30.4664 -84.2231 306° West 350 403 38,000  Level Jacksonville Center
Thu 11:47:51 AM 30.5194 -84.3153 304° West 350 403 38,000  Level Jacksonville Center
Thu 11:48:51 AM 30.5750 -84.3981 308° West 357 411 38,000  Level Jacksonville Center
Thu 11:49:51 AM 30.6469 -84.4814 315° West 363 418 38,000  Level Jacksonville Center
Thu 11:50:51 AM 30.7272 -84.5722 316° Northwest 363 418 38,000  Level Jacksonville Center
Thu 11:51:51 AM 30.8014 -84.6533 317° Northwest 368 423 38,000  Level Jacksonville Center
Thu 11:52:51 AM 30.8650 -84.7319 313° West 363 418 38,000  Level Jacksonville Center
Thu 11:53:51 AM 30.9472 -84.8206 317° Northwest 358 412 38,000  Level Jacksonville Center
Thu 11:54:51 AM 31.0108 -84.8947 315° West 363 418 38,000  Level Jacksonville Center
Thu 11:57:17 AM 31.1828 -85.0969 315° West 363 418 38,000  Level Atlanta Center
Thu 11:58:17 AM 31.2572 -85.1831 315° West 363 418 38,000  Level Atlanta Center
Thu 11:59:17 AM 31.3314 -85.2689 315° West 363 418 38,000  Level Atlanta Center
Thu 12:00:17 PM 31.4058 -85.3550 315° West 363 418 38,000  Level Atlanta Center
Thu 12:01:17 PM 31.4778 -85.4389 315° West 363 418 38,000  Level Atlanta Center
Thu 12:02:17 PM 31.5519 -85.5231 316° Northwest 363 418 38,000  Level Atlanta Center
Thu 12:03:17 PM 31.6261 -85.6119 314° West 370 426 38,000  Level Atlanta Center
Thu 12:04:17 PM 31.6981 -85.6986 314° West 375 432 38,000  Level Atlanta Center
Thu 12:05:17 PM 31.7822 -85.7978 315° West 380 437 38,000  Level Atlanta Center
Thu 12:06:17 PM 31.8558 -85.8872 314° West 380 437 38,000  Level Atlanta Center
Thu 12:07:17 PM 31.9278 -85.9744 314° West 380 437 38,000  Level Atlanta Center
Thu 12:08:17 PM 32.0036 -86.0619 316° Northwest 380 437 38,000  Level Atlanta Center
Thu 12:09:17 PM 32.0647 -86.1392 313° West 374 430 38,000  Level Atlanta Center
Thu 12:10:17 PM 32.1569 -86.2394 317° Northwest 394 453 38,000  Level Atlanta Center
Thu 12:11:17 PM 32.2286 -86.3247 315° West 384 442 38,000  Level Atlanta Center
Thu 12:12:17 PM 32.3019 -86.4175 313° West 367 422 38,000  Level Atlanta Center
Thu 12:13:17 PM 32.3692 -86.5031 313° West 367 422 38,000  Level Atlanta Center
Thu 12:14:17 PM 32.4403 -86.5911 314° West 367 422 38,000  Level Atlanta Center
Thu 12:15:17 PM 32.5053 -86.6767 312° West 367 422 38,000  Level Atlanta Center
Thu 12:16:17 PM 32.5744 -86.7650 313° West 361 415 38,000  Level Atlanta Center
Thu 12:17:17 PM 32.6475 -86.8511 315° West 366 421 38,000  Level Atlanta Center
Thu 12:18:18 PM 32.7144 -86.9397 312° West 366 421 38,000  Level Atlanta Center
Thu 12:19:17 PM 32.7875 -87.0236 316° Northwest 366 421 38,000  Level Atlanta Center
Thu 12:20:17 PM 32.8564 -87.1125 313° West 366 421 38,000  Level Atlanta Center
Thu 12:21:17 PM 32.9250 -87.2014 313° West 366 421 38,000  Level Atlanta Center
Thu 12:22:57 PM 33.0319 -87.3467 311° West 358 412 38,000  Level Memphis Center
Thu 12:23:57 PM 33.1008 -87.4336 313° West 353 406 38,000  Level Memphis Center
Thu 12:24:57 PM 33.1656 -87.5208 312° West 359 413 38,000  Level Memphis Center
Thu 12:25:57 PM 33.2342 -87.6056 314° West 359 413 38,000  Level Memphis Center
Thu 12:26:57 PM 33.3008 -87.6953 312° West 359 413 38,000  Level Memphis Center
Thu 12:27:57 PM 33.3675 -87.7828 312° West 359 413 38,000  Level Memphis Center
Thu 12:28:57 PM 33.4361 -87.8703 313° West 359 413 38,000  Level Memphis Center
Thu 12:29:57 PM 33.4961 -87.9483 313° West 359 413 38,000  Level Memphis Center
Thu 12:30:57 PM 33.5625 -88.0364 312° West 359 413 38,000  Level Memphis Center
Thu 12:31:57 PM 33.6289 -88.1269 311° West 359 413 38,000  Level Memphis Center
Thu 12:32:57 PM 33.6992 -88.2150 314° West 359 413 38,000  Level Memphis Center
Thu 12:33:57 PM 33.7675 -88.3033 313° West 359 413 38,000  Level Memphis Center
Thu 12:34:57 PM 33.8336 -88.3917 312° West 359 413 38,000  Level Memphis Center
Thu 12:35:57 PM 33.8997 -88.4803 312° West 359 413 38,000  Level Memphis Center
Thu 12:36:57 PM 33.9678 -88.5689 313° West 359 413 38,000  Level Memphis Center
Thu 12:37:57 PM 34.0336 -88.6578 312° West 359 413 38,000  Level Memphis Center
Thu 12:38:57 PM 34.1017 -88.7467 313° West 359 413 38,000  Level Memphis Center
Thu 12:39:57 PM 34.1653 -88.8308 312° West 353 406 38,000  Level Memphis Center
Thu 12:40:57 PM 34.2375 -88.9250 313° West 345 397 38,000  Level Memphis Center
Thu 12:41:57 PM 34.3011 -89.0119 312° West 345 397 38,000  Level Memphis Center
Thu 12:42:57 PM 34.3667 -89.0992 312° West 345 397 38,000  Level Memphis Center
Thu 12:43:57 PM 34.4300 -89.1861 311° West 345 397 38,000  Level Memphis Center
Thu 12:44:57 PM 34.4956 -89.2736 312° West 350 403 38,000  Level Memphis Center
Thu 12:45:57 PM 34.5589 -89.3608 311° West 350 403 38,000  Level Memphis Center
Thu 12:46:57 PM 34.6242 -89.4486 312° West 355 409 38,000  Level Memphis Center
Thu 12:47:57 PM 34.6894 -89.5361 312° West 355 409 38,000  Level Memphis Center
Thu 12:48:57 PM 34.7506 -89.6217 311° West 350 403 38,000  Level Memphis Center
Thu 12:49:57 PM 34.8178 -89.7147 311° West 355 409 38,000  Level Memphis Center
Thu 12:50:57 PM 34.8808 -89.8028 311° West 355 409 38,000  Level Memphis Center
Thu 12:51:57 PM 34.9544 -89.8986 313° West 362 417 38,000  Level Memphis Center
Thu 12:52:57 PM 35.0150 -89.9819 312° West 363 418 38,000  Level Memphis Center
Thu 12:53:57 PM 35.0781 -90.0678 312° West 351 404 38,000  Level Memphis Center
Thu 12:54:57 PM 35.1428 -90.1539 313° West 346 398 38,000  Level Memphis Center
Thu 12:55:57 PM 35.2033 -90.2403 311° West 346 398 38,000  Level Memphis Center
Thu 12:56:57 PM 35.2681 -90.3264 313° West 341 392 38,000  Level Memphis Center
Thu 12:57:57 PM 35.3244 -90.4081 310° West 341 392 38,000  Level Memphis Center
Thu 12:58:57 PM 35.3869 -90.4919 312° West 341 392 38,000  Level Memphis Center
Thu 12:59:57 PM 35.4514 -90.5814 312° West 341 392 38,000  Level Memphis Center
Thu 01:00:57 PM 35.5139 -90.6683 311° West 341 392 38,000  Level Memphis Center
Thu 01:01:57 PM 35.5761 -90.7578 311° West 341 392 38,000  Level Memphis Center
Thu 01:02:57 PM 35.6406 -90.8475 311° West 341 392 38,000  Level Memphis Center
Thu 01:03:57 PM 35.7047 -90.9450 309° West 346 398 38,000  Level Memphis Center
Thu 01:04:57 PM 35.7669 -91.0325 311° West 341 392 38,000  Level Memphis Center
Thu 01:05:57 PM 35.8311 -91.1200 312° West 341 392 38,000  Level Memphis Center
Thu 01:06:57 PM 35.8950 -91.2103 311° West 336 387 38,000  Level Memphis Center
Thu 01:07:57 PM 35.9592 -91.3033 310° West 346 398 38,000  Level Memphis Center
Thu 01:08:57 PM 36.0189 -91.3886 311° West 346 398 38,000  Level Memphis Center
Thu 01:10:00 PM 36.0842 -91.4852 310° West  Level FlightAware Approximate
Thu 01:10:57 PM 36.1486 -91.5703 310° West 352 405 38,000  Level Memphis Center
Thu 01:11:57 PM 36.2122 -91.6636 310° West 352 405 38,000  Level Memphis Center
Thu 01:12:58 PM 36.2636 -91.7367 311° West 357 411 38,000  Level Memphis Center
Thu 01:13:57 PM 36.3394 -91.8461 311° West 357 411 38,000  Level Memphis Center
Thu 01:14:57 PM 36.4050 -91.9350 313° West 357 411 38,000  Level Memphis Center
Thu 01:15:57 PM 36.4664 -92.0264 310° West 357 411 38,000  Level Memphis Center
Thu 01:16:57 PM 36.5297 -92.1181 311° West 352 405 38,000  Level Memphis Center
Thu 01:18:58 PM 36.6506 -92.2928 311° West 344 396 38,000  Level Kansas City Center
Thu 01:19:59 PM 36.7136 -92.3828 311° West 344 396 38,000 -246 Level Kansas City Center
Thu 01:21:00 PM 36.7750 -92.4731 310° West 341 392 37,500 -672 Descending Kansas City Center
Thu 01:22:04 PM 36.8375 -92.5647 310° West 343 395 36,600 -912 Descending Kansas City Center
Thu 01:23:05 PM 36.9003 -92.6572 310° West 348 400 35,600 -968 Descending Kansas City Center
Thu 01:24:08 PM 36.9636 -92.7494 311° West 347 399 34,600 -774 Descending Kansas City Center
Thu 01:25:09 PM 37.0267 -92.8419 311° West 347 399 34,000 -288 Descending Kansas City Center
Thu 01:26:13 PM 37.1025 -92.9550 310° West 350 403 34,000  Level Kansas City Center
Thu 01:27:14 PM 37.1650 -93.0481 310° West 348 400 34,000  Level Kansas City Center
Thu 01:28:17 PM 37.2278 -93.1422 310° West 349 402 34,000  Level Kansas City Center
Thu 01:29:19 PM 37.2903 -93.2358 310° West 347 399 34,000  Level Kansas City Center
Thu 01:30:20 PM 37.3547 -93.3283 311° West 350 403 34,000  Level Kansas City Center
Thu 01:31:22 PM 37.4475 -93.3858 334° Northwest 366 421 34,000 -528 Level Kansas City Center
Thu 01:32:25 PM 37.5408 -93.4372 336° Northwest 365 420 32,900 -1,065 Descending Kansas City Center
Thu 01:33:26 PM 37.6339 -93.4894 336° Northwest 365 420 31,800 -1,113 Descending Kansas City Center
Thu 01:34:29 PM 37.7431 -93.5492 337° Northwest 356 410 30,600 -1,065 Descending Kansas City Center
Thu 01:35:30 PM 37.8300 -93.5981 336° Northwest 345 397 29,600 -1,016 Descending Kansas City Center
Thu 01:36:33 PM 37.9133 -93.6453 336° Northwest 333 383 28,500 -1,016 Descending Kansas City Center
Thu 01:37:34 PM 37.9989 -93.6936 336° Northwest 332 382 27,500 -960 Descending Kansas City Center
Thu 01:38:38 PM 38.0844 -93.7419 336° Northwest 334 384 26,500 -952 Descending Kansas City Center
Thu 01:39:40 PM 38.1692 -93.7892 336° Northwest 332 382 25,500 -984 Descending Kansas City Center
Thu 01:40:40 PM 38.2528 -93.8375 336° Northwest 330 380 24,500 -1,065 Descending Kansas City Center
Thu 01:41:44 PM 38.3514 -93.8925 336° Northwest 323 372 23,300 -1,048 Descending Kansas City Center
Thu 01:42:46 PM 38.4319 -93.9392 336° Northwest 319 367 22,300 -976 Descending Kansas City Center
Thu 01:43:47 PM 38.5056 -93.9822 335° Northwest 319 367 21,300 -1,016 Descending Kansas City Center
Thu 01:44:50 PM 38.5964 -94.0339 336° Northwest 319 367 20,200 -1,065 Descending Kansas City Center
Thu 01:45:51 PM 38.6722 -94.0775 336° Northwest 314 361 19,100 -1,082 Descending Kansas City Center
Thu 01:46:52 PM 38.7436 -94.1483 322° Northwest 285 328 18,000 -1,344 Descending Kansas City Center
Thu 01:47:56 PM 38.8008 -94.2111 319° Northwest 282 325 16,300 -1,790 Descending Kansas City Center
Thu 01:48:56 PM 38.8683 -94.2839 320° Northwest 281 323 14,300 -1,785 Descending Kansas City Center
Thu 01:49:57 PM 38.9244 -94.3444 320° Northwest 277 319 12,700 -1,056 Descending Kansas City Center
Thu 01:51:01 PM 38.9892 -94.4136 320° Northwest 272 313 12,100 -288 Descending Kansas City Center
Thu 01:52:02 PM 39.0472 -94.4778 319° Northwest 287 330 12,100  Level Kansas City Center
Thu 01:53:06 PM 39.1172 -94.5533 320° Northwest 294 338 12,100 -48 Level Kansas City Center
Thu 01:54:07 PM 39.1717 -94.6075 322° Northwest 261 300 12,000 -677 Descending Kansas City Center
Thu 01:55:10 PM 39.2450 -94.5900 10° North 245 282 10,700 -1,113 Descending Kansas City Center
Thu 01:56:11 PM 39.2981 -94.5742 13° North 205 236 9,700 -1,377 Descending Kansas City Center
Thu 01:57:12 PM 39.3589 -94.5564 13° North 202 232 7,900 -1,512 Descending Kansas City Center
Thu 01:58:14 PM 39.4128 -94.5325 19° North 212 244 6,600 -1,333 Descending Kansas City Center
Thu 01:59:18 PM 39.4728 -94.5250 North 204 235 5,100 -1,440 Descending Kansas City Center
Thu 02:00:19 PM 39.4603 -94.5844 255° West 190 219 3,600 -968 Descending Kansas City Center
Thu 02:01:22 PM 39.4164 -94.6369 223° Southwest 190 219 3,100 -576 Descending Kansas City Center
Thu 02:02:24 PM 39.3756 -94.6756 216° Southwest 189 217 2,400 -738 Descending Kansas City Center
Thu 02:03:24 PM 39.3367 -94.6931 199° South 154 177 1,600 -726 Descending Kansas City Center
Thu 02:04:28 PM 39.3017 -94.7031 192° South 140 161 900 -656 Descending Kansas City Center

Login

Don't have an account? Register now (free) for customized features, flight alerts, and more!